Time;durP1;ratioP1;P1;durP2;ratioP2;P2;SDS_P1;SDS_P2;PMS_P1;PMS_P2;Temp;Humidity;BMP_temperature;BMP_pressure;BME280_temperature;BME280_humidity;BME280_pressure;Samples;Min_cycle;Max_cycle;Signal;HPM_P1;HPM_P2
2022/03/30 00:00:14;;;;;;;11.87;8.50;;;;;;;15.26;41.10;96785.63;8333266;28;20246;-85
2022/03/30 00:04:18;;;;;;;12.17;8.40;;;;;;;15.16;41.42;96772.53;8336694;28;20228;-86
2022/03/30 00:08:21;;;;;;;12.23;7.90;;;;;;;15.22;41.76;96769.41;8344006;28;20225;-85
2022/03/30 00:12:24;;;;;;;11.93;8.30;;;;;;;15.30;41.44;96763.56;8339439;28;20236;-85
2022/03/30 00:16:30;;;;;;;10.13;7.70;;;;;;;15.24;41.43;96764.91;8346106;28;20525;-85
2022/03/30 00:20:35;;;;;;;13.27;7.67;;;;;;;15.26;41.52;96751.72;8350851;28;20287;-86
2022/03/30 00:24:38;;;;;;;10.00;6.80;;;;;;;15.33;41.71;96752.06;8349015;28;20242;-86
2022/03/30 00:28:41;;;;;;;11.83;7.13;;;;;;;15.27;41.33;96742.13;8348524;28;20232;-86
2022/03/30 00:32:44;;;;;;;10.73;7.57;;;;;;;15.25;41.04;96739.66;8348751;28;20255;-85
2022/03/30 00:36:49;;;;;;;9.37;7.13;;;;;;;15.17;41.32;96729.00;8348625;28;20235;-86
2022/03/30 00:40:53;;;;;;;10.27;7.13;;;;;;;15.20;41.43;96727.00;8348289;28;20232;-85
2022/03/30 00:44:55;;;;;;;10.77;7.70;;;;;;;15.20;42.02;96720.94;8346959;28;20239;-86
2022/03/30 00:48:59;;;;;;;14.23;8.37;;;;;;;15.19;41.82;96719.28;8340796;28;20395;-89
2022/03/30 00:53:04;;;;;;;13.13;8.30;;;;;;;15.13;41.98;96718.00;8338842;28;20231;-89
2022/03/30 00:57:10;;;;;;;10.57;8.07;;;;;;;15.01;42.57;96714.63;8348298;28;20427;-89
2022/03/30 01:01:14;;;;;;;13.30;8.80;;;;;;;14.97;42.73;96717.63;8347356;28;20225;-87
2022/03/30 01:05:18;;;;;;;13.47;8.53;;;;;;;14.78;43.33;96711.31;8347465;28;20259;-88
2022/03/30 01:09:23;;;;;;;14.10;8.43;;;;;;;14.76;43.27;96709.78;8347509;28;20258;-86
2022/03/30 01:13:26;;;;;;;12.87;8.27;;;;;;;14.64;43.62;96701.16;8347172;28;20232;-88
2022/03/30 01:17:29;;;;;;;14.07;8.20;;;;;;;14.61;43.82;96694.44;8346642;28;20247;-87
2022/03/30 01:21:37;;;;;;;12.60;7.80;;;;;;;14.74;43.76;96696.88;8346646;28;20228;-86
2022/03/30 01:25:40;;;;;;;11.53;8.47;;;;;;;14.70;44.03;96694.63;8347005;28;20243;-86
2022/03/30 01:34:06;;;;;;;12.33;8.27;;;;;;;14.57;44.94;96682.63;8349187;28;20530;-86
2022/03/30 01:38:13;;;;;;;11.17;8.30;;;;;;;14.61;45.00;96672.78;8340477;28;20418;-85
2022/03/30 01:42:16;;;;;;;12.00;8.20;;;;;;;14.59;45.26;96666.88;8349466;28;20408;-86
2022/03/30 01:46:19;;;;;;;13.27;8.17;;;;;;;14.62;45.17;96662.25;8350943;28;20228;-87
2022/03/30 01:50:22;;;;;;;15.40;8.97;;;;;;;14.62;45.27;96656.19;8350901;28;20384;-86
2022/03/30 01:54:29;;;;;;;11.03;8.07;;;;;;;14.33;46.54;96653.31;8350738;28;20196;-86
2022/03/30 01:58:32;;;;;;;10.50;9.20;;;;;;;14.22;47.38;96643.75;8350290;28;20195;-86
2022/03/30 02:02:35;;;;;;;14.20;8.53;;;;;;;14.41;46.75;96632.66;8332694;28;20212;-86
2022/03/30 02:06:42;;;;;;;12.00;9.53;;;;;;;14.42;46.70;96629.94;8316186;28;20439;-88
2022/03/30 02:10:47;;;;;;;13.80;8.77;;;;;;;14.42;46.87;96627.34;8314695;28;20237;-88
2022/03/30 02:14:53;;;;;;;13.17;8.57;;;;;;;14.45;47.28;96616.69;8315254;28;20228;-87
2022/03/30 02:18:56;;;;;;;11.03;9.13;;;;;;;14.43;47.08;96613.38;8315086;28;20232;-87
2022/03/30 02:22:59;;;;;;;11.00;8.57;;;;;;;14.47;47.31;96614.78;8315260;28;20430;-88
2022/03/30 02:27:04;;;;;;;12.43;9.30;;;;;;;14.45;47.26;96608.06;8314957;28;20456;-88
2022/03/30 02:31:08;;;;;;;11.20;9.53;;;;;;;14.22;47.71;96605.53;8315379;28;20240;-91
2022/03/30 02:35:13;;;;;;;11.13;9.17;;;;;;;14.44;47.26;96609.00;8314871;28;20440;-89
2022/03/30 02:39:18;;;;;;;14.73;9.27;;;;;;;14.16;47.94;96594.78;8314414;28;20262;-89
2022/03/30 02:43:24;;;;;;;15.70;10.40;;;;;;;14.31;47.94;96603.94;8313605;28;20241;-89
2022/03/30 02:51:44;;;;;;;18.17;11.20;;;;;;;14.15;48.81;96593.94;8315537;28;20236;-89
2022/03/30 02:55:47;;;;;;;15.53;10.70;;;;;;;14.20;48.48;96590.97;8314348;28;20531;-90
2022/03/30 02:59:52;;;;;;;16.67;11.40;;;;;;;14.21;48.39;96593.44;8323439;28;20235;-89
2022/03/30 03:03:55;;;;;;;18.73;11.37;;;;;;;14.16;49.11;96589.56;8314377;28;20236;-88
2022/03/30 03:07:58;;;;;;;18.90;11.80;;;;;;;14.03;49.35;96587.13;8313111;28;20241;-89
2022/03/30 03:12:02;;;;;;;18.37;12.27;;;;;;;14.12;49.37;96596.78;8313686;28;20233;-89
2022/03/30 03:16:06;;;;;;;18.77;12.60;;;;;;;13.78;50.58;96576.06;8297166;28;20241;-89
2022/03/30 03:20:11;;;;;;;20.33;12.20;;;;;;;13.60;51.63;96585.34;8312600;28;20229;-87
2022/03/30 03:24:14;;;;;;;17.00;12.30;;;;;;;13.78;51.10;96585.66;8318006;28;20241;-89
2022/03/30 03:28:17;;;;;;;17.37;12.47;;;;;;;13.67;51.33;96586.50;8319719;28;20236;-89
2022/03/30 03:32:22;;;;;;;14.63;12.47;;;;;;;13.60;51.57;96585.34;8319581;28;20240;-89
2022/03/30 03:36:26;;;;;;;18.70;13.33;;;;;;;13.60;51.77;96583.56;8319258;28;20233;-88
2022/03/30 03:40:30;;;;;;;18.67;12.87;;;;;;;13.77;50.85;96576.19;8320601;28;20247;-88
2022/03/30 03:44:33;;;;;;;18.70;13.53;;;;;;;13.92;50.50;96574.97;8319960;28;20240;-89
2022/03/30 03:48:38;;;;;;;19.43;12.93;;;;;;;13.79;51.55;96567.31;8319700;28;20539;-90
2022/03/30 03:52:41;;;;;;;17.27;13.20;;;;;;;13.89;51.67;96562.19;8319253;28;20225;-88
2022/03/30 03:56:45;;;;;;;18.53;13.40;;;;;;;13.98;51.26;96566.69;8318594;28;20430;-87
2022/03/30 04:00:48;;;;;;;19.20;13.43;;;;;;;13.98;51.28;96561.47;8318692;28;20236;-88
2022/03/30 04:04:53;;;;;;;23.17;14.07;;;;;;;13.97;51.80;96557.19;8349223;28;20590;-87
2022/03/30 04:08:56;;;;;;;22.27;13.93;;;;;;;13.92;51.67;96561.97;8351766;28;20240;-87
2022/03/30 04:12:59;;;;;;;18.27;12.97;;;;;;;13.87;52.25;96556.28;8352094;28;20255;-88
2022/03/30 04:17:03;;;;;;;15.27;11.97;;;;;;;13.96;52.10;96552.16;8351290;28;20413;-88
2022/03/30 04:21:07;;;;;;;19.63;12.27;;;;;;;13.94;51.58;96547.06;8350525;28;20254;-87
2022/03/30 04:25:10;;;;;;;16.07;12.57;;;;;;;13.97;52.01;96552.00;8349431;28;20232;-86
2022/03/30 04:29:14;;;;;;;19.60;12.33;;;;;;;14.00;51.68;96546.56;8349947;28;20238;-87
2022/03/30 04:33:17;;;;;;;17.23;12.60;;;;;;;13.96;51.88;96541.72;8350515;28;20232;-87
2022/03/30 04:37:22;;;;;;;17.70;12.50;;;;;;;13.83;52.32;96534.91;8350232;28;20228;-87
2022/03/30 04:41:24;;;;;;;20.40;14.10;;;;;;;13.61;53.39;96532.34;8349482;28;20232;-87
2022/03/30 04:45:27;;;;;;;18.40;13.70;;;;;;;13.34;54.48;96517.16;8350766;28;20258;-87
2022/03/30 04:49:31;;;;;;;18.87;13.90;;;;;;;13.40;54.41;96519.28;8350740;28;20234;-87
2022/03/30 04:53:35;;;;;;;18.80;13.80;;;;;;;13.51;54.01;96515.84;8338014;28;20229;-87
2022/03/30 04:57:40;;;;;;;18.27;13.77;;;;;;;13.21;54.59;96522.44;8331857;28;20240;-84
2022/03/30 05:01:42;;;;;;;17.70;14.23;;;;;;;13.48;53.92;96506.50;8327180;28;20232;-84
2022/03/30 05:05:46;;;;;;;22.57;14.37;;;;;;;13.37;54.17;96504.75;8349507;28;20238;-83
2022/03/30 05:09:51;;;;;;;23.30;13.63;;;;;;;13.39;54.01;96502.03;8349271;28;20239;-86
2022/03/30 05:13:54;;;;;;;20.37;13.73;;;;;;;13.42;53.36;96502.63;8349386;28;20232;-84
2022/03/30 05:17:57;;;;;;;20.20;13.43;;;;;;;13.67;53.24;96498.06;8349651;28;20398;-83
2022/03/30 05:22:01;;;;;;;25.43;16.80;;;;;;;13.63;52.81;96500.09;8349834;28;20235;-95
2022/03/30 05:26:05;;;;;;;20.70;13.33;;;;;;;13.68;52.95;96495.31;8338671;28;20393;-90
2022/03/30 05:30:10;;;;;;;18.63;12.83;;;;;;;13.68;52.74;96494.50;8323972;28;20235;-90
2022/03/30 05:34:14;;;;;;;18.30;13.70;;;;;;;13.09;54.60;96491.28;8314715;28;20243;-87
2022/03/30 05:38:17;;;;;;;24.20;14.90;;;;;;;13.05;54.76;96484.66;8316465;28;20241;-88
2022/03/30 05:42:22;;;;;;;21.70;14.40;;;;;;;13.09;54.88;96487.84;8316312;28;20243;-86
2022/03/30 05:46:26;;;;;;;18.67;13.43;;;;;;;13.08;54.90;96489.63;8321279;28;20236;-87
2022/03/30 05:50:29;;;;;;;23.73;15.10;;;;;;;13.23;54.69;96478.97;8322479;28;20306;-87
2022/03/30 05:54:32;;;;;;;23.97;14.03;;;;;;;13.58;53.77;96486.63;8316238;28;20316;-87
2022/03/30 05:58:36;;;;;;;18.83;14.83;;;;;;;13.16;55.50;96493.41;8315806;28;20239;-87
2022/03/30 06:02:39;;;;;;;20.43;15.03;;;;;;;13.01;56.29;96485.84;8315483;28;20550;-86
2022/03/30 06:06:43;;;;;;;19.87;15.30;;;;;;;12.85;56.83;96483.63;8314766;28;20243;-88
2022/03/30 06:10:46;;;;;;;31.10;17.97;;;;;;;13.30;55.81;96482.78;8315358;28;20233;-86
2022/03/30 06:14:51;;;;;;;28.43;19.40;;;;;;;13.30;56.37;96487.97;8315082;28;20566;-88
2022/03/30 06:18:55;;;;;;;28.17;17.20;;;;;;;13.35;55.83;96472.03;8315450;28;20621;-87
2022/03/30 06:22:59;;;;;;;21.73;16.00;;;;;;;13.44;55.57;96485.13;8314297;28;20243;-89
2022/03/30 06:27:04;;;;;;;21.57;15.53;;;;;;;13.42;55.78;96488.78;8315358;28;20237;-89
2022/03/30 06:31:13;;;;;;;22.63;15.63;;;;;;;13.59;55.34;96482.22;8313947;28;20229;-87
2022/03/30 06:35:17;;;;;;;20.20;15.03;;;;;;;13.68;54.85;96491.91;8314195;28;20438;-87
2022/03/30 06:39:20;;;;;;;24.50;16.77;;;;;;;13.74;55.04;96490.59;8313231;28;20430;-87
2022/03/30 06:43:23;;;;;;;22.03;15.50;;;;;;;13.60;55.06;96491.69;8314464;28;20242;-89
2022/03/30 06:47:28;;;;;;;23.87;16.40;;;;;;;13.79;54.82;96494.47;8314443;28;20241;-88
2022/03/30 06:51:31;;;;;;;22.13;16.73;;;;;;;13.83;55.44;96495.88;8320283;28;20519;-90
2022/03/30 06:55:35;;;;;;;24.97;17.00;;;;;;;13.86;56.07;96502.63;8338405;28;20267;-89
2022/03/30 06:59:39;;;;;;;23.47;15.87;;;;;;;13.93;55.86;96501.16;8338862;28;20234;-88
2022/03/30 07:03:44;;;;;;;22.47;15.63;;;;;;;13.93;56.33;96498.53;8519480;22;20194;-88
2022/03/30 07:12:08;;;;;;;21.70;15.13;;;;;;;13.93;56.90;96497.72;8323276;28;20319;-89
2022/03/30 07:16:13;;;;;;;21.57;16.00;;;;;;;14.01;56.54;96493.56;8303763;28;20229;-88
2022/03/30 07:20:20;;;;;;;19.93;15.90;;;;;;;13.86;56.71;96497.41;8303305;28;20228;-86
2022/03/30 07:24:24;;;;;;;20.77;16.00;;;;;;;13.89;56.99;96497.16;8322791;28;20232;-90
2022/03/30 07:28:27;;;;;;;20.33;15.70;;;;;;;13.94;56.69;96484.59;8336543;28;20243;-89
2022/03/30 07:32:30;;;;;;;22.00;16.50;;;;;;;13.96;56.40;96494.88;8335440;28;20235;-87
2022/03/30 07:36:35;;;;;;;23.00;15.93;;;;;;;14.01;56.99;96493.56;8352493;28;20232;-86
2022/03/30 07:40:38;;;;;;;22.30;15.97;;;;;;;13.99;57.03;96494.63;8335608;28;20252;-87
2022/03/30 07:44:41;;;;;;;22.80;16.50;;;;;;;14.00;56.91;96493.69;8353280;28;20396;-87
2022/03/30 07:48:44;;;;;;;23.20;17.13;;;;;;;13.97;56.82;96499.13;8352334;28;20239;-89
2022/03/30 07:52:50;;;;;;;23.97;16.27;;;;;;;14.02;57.22;96489.16;8353298;28;20413;-88
2022/03/30 07:56:53;;;;;;;22.90;16.77;;;;;;;13.99;57.01;96492.00;8353258;28;20418;-90
2022/03/30 08:01:01;;;;;;;22.23;16.50;;;;;;;14.03;57.43;96488.22;8331454;28;20228;-89
2022/03/30 08:05:08;;;;;;;20.33;16.87;;;;;;;13.95;58.40;96488.84;8303705;28;20241;-88
2022/03/30 08:09:13;;;;;;;21.57;16.07;;;;;;;14.01;57.80;96482.31;8286078;28;20237;-89
2022/03/30 08:13:17;;;;;;;19.43;16.33;;;;;;;13.96;57.92;96487.09;8269435;28;20253;-88
2022/03/30 08:17:20;;;;;;;22.17;16.73;;;;;;;13.95;58.02;96482.81;8287493;28;20513;-88
2022/03/30 08:25:45;;;;;;;22.50;17.10;;;;;;;14.00;58.43;96489.28;8286284;28;20244;-87
2022/03/30 08:29:49;;;;;;;23.77;17.70;;;;;;;13.96;58.65;96487.09;8286805;28;20234;-88
2022/03/30 08:33:52;;;;;;;24.37;17.93;;;;;;;13.93;58.72;96484.72;8286806;28;20249;-87
2022/03/30 08:37:55;;;;;;;23.03;17.20;;;;;;;13.85;58.93;96478.34;8285888;28;20233;-88
2022/03/30 08:42:00;;;;;;;22.57;17.63;;;;;;;13.92;59.01;96476.09;8292211;28;20229;-85
2022/03/30 08:46:04;;;;;;;22.00;17.77;;;;;;;13.83;58.94;96485.47;8289604;28;20562;-86
2022/03/30 08:50:08;;;;;;;21.17;18.27;;;;;;;13.97;59.14;96492.13;8318807;28;20448;-86
2022/03/30 08:54:12;;;;;;;26.37;18.83;;;;;;;14.00;59.25;96488.47;8317473;28;20240;-87
2022/03/30 08:58:17;;;;;;;19.73;17.20;;;;;;;13.96;59.21;96490.50;8316813;28;20237;-88
2022/03/30 09:02:22;;;;;;;22.57;17.57;;;;;;;13.92;59.33;96477.84;8304868;28;20237;-88
2022/03/30 09:06:36;;;;;;;21.37;18.37;;;;;;;14.00;59.20;96483.28;8287639;28;20241;-88
2022/03/30 09:10:40;;;;;;;21.33;17.77;;;;;;;13.98;58.98;96486.00;8291288;28;20230;-86
2022/03/30 09:14:46;;;;;;;24.57;18.90;;;;;;;13.99;58.59;96469.44;8291636;28;20237;-87
2022/03/30 09:19:04;;;;;;;22.27;17.53;;;;;;;14.08;58.30;96479.06;8291107;28;20407;-88
2022/03/30 09:23:08;;;;;;;23.17;17.90;;;;;;;14.11;58.02;96466.75;8291950;28;20241;-89
2022/03/30 09:27:23;;;;;;;22.50;18.13;;;;;;;14.13;58.79;96467.47;8270397;28;20240;-91
2022/03/30 09:31:30;;;;;;;22.90;18.87;;;;;;;14.15;59.51;96460.38;8293143;28;20420;-90
2022/03/30 09:35:38;;;;;;;20.30;17.20;;;;;;;14.22;58.47;96466.69;8293378;28;20229;-91
2022/03/30 09:39:42;;;;;;;23.27;18.03;;;;;;;14.12;59.20;96460.59;8276909;28;20248;-93
2022/03/30 09:43:45;;;;;;;20.40;17.17;;;;;;;14.18;59.03;96460.91;8293275;28;20268;-92
2022/03/30 09:47:53;;;;;;;20.23;16.70;;;;;;;14.15;58.51;96460.38;8275657;28;20431;-93
2022/03/30 09:51:57;;;;;;;21.97;16.97;;;;;;;14.06;59.29;96452.34;8274647;28;20267;-91
2022/03/30 09:56:02;;;;;;;20.53;17.17;;;;;;;14.06;59.10;96444.53;8292104;28;20360;-91
2022/03/30 10:00:08;;;;;;;21.10;16.23;;;;;;;14.14;59.01;96446.50;8290438;28;20233;-89
2022/03/30 10:04:14;;;;;;;21.80;16.57;;;;;;;14.11;58.75;96432.91;8284501;28;20256;-89
2022/03/30 10:08:17;;;;;;;19.00;16.10;;;;;;;14.16;59.60;96435.97;8257914;28;20264;-88
2022/03/30 10:12:20;;;;;;;24.17;17.03;;;;;;;14.18;59.52;96439.25;8289414;28;20241;-94
2022/03/30 10:16:24;;;;;;;19.47;17.33;;;;;;;14.18;59.70;96423.66;8291274;28;20241;-89
2022/03/30 10:20:31;;;;;;;22.40;17.30;;;;;;;14.12;59.41;96419.78;8295190;28;20245;-95
2022/03/30 10:24:50;;;;;;;20.17;17.23;;;;;;;14.18;59.10;96419.25;8295670;28;20264;-95
2022/03/30 10:29:00;;;;;;;20.40;17.63;;;;;;;14.12;59.94;96419.78;8276862;28;20240;-87
2022/03/30 10:33:05;;;;;;;20.80;10.30;;;;;;;15.91;58.22;96415.63;8271924;28;20297;-87
2022/03/30 10:37:11;;;;;;;20.27;12.77;;;;;;;16.38;55.03;96412.25;8286770;28;20241;-83
2022/03/30 10:41:15;;;;;;;17.13;12.77;;;;;;;16.99;52.46;96409.13;8284934;28;20356;-83
2022/03/30 10:45:19;;;;;;;21.87;14.33;;;;;;;17.25;51.20;96403.22;8284715;28;20239;-84
2022/03/30 10:49:44;;;;;;;24.13;18.77;;;;;;;15.95;52.21;96400.50;8287493;28;20271;-92
2022/03/30 10:53:53;;;;;;;22.10;18.20;;;;;;;15.32;53.42;96399.13;8271608;28;20237;-93
2022/03/30 10:57:58;;;;;;;21.80;17.90;;;;;;;14.48;56.75;96394.19;8290307;28;20527;-93
2022/03/30 11:02:13;;;;;;;21.17;17.90;;;;;;;14.69;56.31;96388.97;8273295;28;20234;-96
2022/03/30 11:06:18;;;;;;;21.80;18.40;;;;;;;14.55;57.08;96390.13;8291006;28;20225;-96
2022/03/30 11:15:23;;;;;;;22.33;17.97;;;;;;;13.94;58.88;96384.88;8288394;28;20229;-92
2022/03/30 11:19:30;;;;;;;21.47;17.93;;;;;;;14.29;58.77;96379.31;8288956;28;20240;-94
2022/03/30 11:23:35;;;;;;;22.73;18.80;;;;;;;14.39;58.22;96374.16;8286841;28;20267;-87
2022/03/30 11:27:39;;;;;;;20.53;17.63;;;;;;;14.38;58.10;96359.50;8292843;28;20233;-94
2022/03/30 11:31:44;;;;;;;20.27;17.87;;;;;;;14.48;58.45;96355.94;8286654;28;20229;-96
2022/03/30 11:35:51;;;;;;;20.90;18.60;;;;;;;14.53;59.29;96349.53;8297730;28;20229;-94
2022/03/30 11:40:01;;;;;;;23.23;19.27;;;;;;;14.57;57.56;96349.16;8295111;28;20229;-94
2022/03/30 11:48:39;;;;;;;21.03;16.53;;;;;;;14.74;57.46;96346.91;8301129;28;20374;-95
2022/03/30 11:52:59;;;;;;;22.40;17.90;;;;;;;14.80;58.58;96347.16;8259360;28;20229;-94
2022/03/30 11:57:03;;;;;;;18.97;15.93;;;;;;;14.63;56.42;96333.00;8297623;28;20230;-92
2022/03/30 12:01:12;;;;;;;16.90;14.77;;;;;;;14.71;56.80;96341.94;8279853;28;20232;-91
2022/03/30 12:05:18;;;;;;;17.33;14.50;;;;;;;14.83;57.05;96344.31;8283043;28;20249;-94
2022/03/30 12:09:21;;;;;;;19.63;14.87;;;;;;;14.98;55.91;96334.31;8264384;28;20233;-93
2022/03/30 12:13:28;;;;;;;20.43;15.57;;;;;;;15.08;55.99;96333.50;8278832;28;20245;-94
2022/03/30 12:17:31;;;;;;;19.60;15.57;;;;;;;14.93;56.73;96325.25;8295996;28;20516;-94
2022/03/30 12:21:38;;;;;;;18.47;15.03;;;;;;;14.94;56.42;96322.50;8276318;28;20237;-94
2022/03/30 12:25:44;;;;;;;20.67;16.10;;;;;;;15.01;56.80;96322.78;8294773;28;20298;-92
2022/03/30 12:29:48;;;;;;;19.67;15.53;;;;;;;14.94;56.20;96316.47;8295087;28;20237;-92
2022/03/30 12:33:52;;;;;;;18.77;15.10;;;;;;;14.88;55.96;96320.44;8278042;28;20252;-92
2022/03/30 12:38:07;;;;;;;22.03;16.73;;;;;;;14.84;55.75;96312.06;8293585;28;20229;-92
2022/03/30 12:42:30;;;;;;;21.13;16.57;;;;;;;14.71;56.70;96311.50;8291104;28;20222;-92
2022/03/30 12:46:34;;;;;;;20.33;15.70;;;;;;;14.65;56.54;96309.44;8294687;28;20241;-92
2022/03/30 12:50:37;;;;;;;19.57;15.17;;;;;;;14.61;57.73;96302.84;8281663;28;20253;-93
2022/03/30 12:59:24;;;;;;;20.20;15.57;;;;;;;14.48;57.90;96298.66;8303189;28;20236;-92
2022/03/30 13:03:36;;;;;;;18.80;15.60;;;;;;;14.50;58.76;96302.91;8294464;28;20232;-93
2022/03/30 13:07:54;;;;;;;20.40;15.40;;;;;;;14.51;58.53;96294.97;8327769;28;20228;-93
2022/03/30 13:11:59;;;;;;;19.67;16.33;;;;;;;14.49;59.44;96291.69;8303945;28;20229;-93
2022/03/30 13:16:08;;;;;;;20.93;17.30;;;;;;;14.50;59.04;96288.09;8326684;28;20232;-93
2022/03/30 13:24:54;;;;;;;19.37;16.93;;;;;;;14.26;59.05;96276.25;8283805;28;20523;-92
2022/03/30 13:29:01;;;;;;;25.30;19.50;;;;;;;14.07;59.92;96268.38;8286339;28;20313;-92
2022/03/30 13:33:06;;;;;;;23.27;19.50;;;;;;;14.24;59.47;96264.31;8307772;28;20240;-94
2022/03/30 13:37:10;;;;;;;22.97;19.53;;;;;;;14.32;58.78;96271.47;8322802;28;20236;-92
2022/03/30 13:41:27;;;;;;;21.33;18.20;;;;;;;14.05;60.02;96263.31;8308128;28;20240;-92
2022/03/30 13:45:46;;;;;;;22.90;19.70;;;;;;;14.20;59.64;96252.53;8292414;28;20225;-94
2022/03/30 13:49:56;;;;;;;25.33;21.73;;;;;;;14.22;59.54;96261.88;8284163;28;20233;-93
2022/03/30 13:54:00;;;;;;;29.43;23.60;;;;;;;13.98;60.71;96256.16;8288496;28;20405;-91
2022/03/30 13:58:07;;;;;;;30.40;25.57;;;;;;;14.06;59.77;96257.13;8288795;28;20233;-90
2022/03/30 14:02:14;;;;;;;34.37;27.57;;;;;;;13.89;60.20;96250.75;8290080;28;20237;-92
2022/03/30 14:06:18;;;;;;;34.33;27.20;;;;;;;14.01;58.96;96254.13;8298614;28;20237;-91
2022/03/30 14:10:22;;;;;;;38.80;31.70;;;;;;;13.71;60.83;96254.09;8295949;28;20403;-91
2022/03/30 14:14:25;;;;;;;48.43;37.20;;;;;;;13.71;60.19;96259.28;8287499;28;20234;-91
2022/03/30 14:18:30;;;;;;;39.87;33.53;;;;;;;13.67;60.61;96253.56;8286125;28;20242;-90
2022/03/30 14:22:33;;;;;;;47.33;36.97;;;;;;;13.57;60.68;96243.06;8291545;28;20233;-92
2022/03/30 14:26:37;;;;;;;44.40;35.30;;;;;;;13.67;60.34;96248.34;8295894;28;20237;-90
2022/03/30 14:30:41;;;;;;;44.20;34.37;;;;;;;13.63;59.64;96254.72;8293591;28;20247;-90
2022/03/30 14:34:48;;;;;;;40.90;33.83;;;;;;;13.55;60.16;96251.97;8287456;28;20232;-90
2022/03/30 14:38:54;;;;;;;39.20;31.27;;;;;;;13.36;60.27;96252.66;8292017;28;20233;-92
2022/03/30 14:42:57;;;;;;;31.77;27.63;;;;;;;13.11;60.39;96258.06;8293519;28;20229;-88
2022/03/30 14:47:08;;;;;;;29.77;26.63;;;;;;;13.22;59.53;96253.78;8294206;28;20252;-91
2022/03/30 14:51:14;;;;;;;25.57;22.70;;;;;;;13.08;59.33;96257.53;8294066;28;20248;-91
2022/03/30 14:55:18;;;;;;;27.20;23.60;;;;;;;13.15;59.17;96257.81;8292547;28;20238;-92
2022/03/30 14:59:23;;;;;;;25.80;23.00;;;;;;;12.82;60.31;96249.25;8294488;28;20237;-92
2022/03/30 15:03:27;;;;;;;24.60;21.57;;;;;;;12.88;59.47;96246.94;8294236;28;20293;-93
2022/03/30 15:07:33;;;;;;;26.30;22.57;;;;;;;12.78;60.16;96256.44;8300962;28;20233;-92
2022/03/30 15:11:38;;;;;;;26.50;21.83;;;;;;;12.83;59.23;96250.88;8307365;28;20237;-92
2022/03/30 15:15:42;;;;;;;23.83;20.20;;;;;;;12.67;59.31;96240.91;8289313;28;20330;-92
2022/03/30 15:19:45;;;;;;;25.43;20.80;;;;;;;12.69;58.91;96254.59;8317776;28;20228;-90
2022/03/30 15:23:51;;;;;;;23.00;20.33;;;;;;;12.65;59.03;96245.41;8332243;28;20233;-92
2022/03/30 15:27:55;;;;;;;20.77;18.57;;;;;;;12.55;58.95;96244.50;8314458;28;20236;-91
2022/03/30 15:31:58;;;;;;;21.60;18.87;;;;;;;12.65;58.34;96251.41;8320007;28;20232;-92
2022/03/30 15:36:02;;;;;;;20.57;18.33;;;;;;;12.51;58.90;96247.31;8333329;28;20293;-93
2022/03/30 15:40:10;;;;;;;20.03;18.03;;;;;;;12.57;58.16;96240.00;8315243;28;20332;-91
2022/03/30 15:44:14;;;;;;;19.70;17.47;;;;;;;12.57;57.85;96243.41;8298760;28;20233;-94
2022/03/30 15:48:18;;;;;;;19.93;17.60;;;;;;;12.41;58.48;96235.19;8276104;28;20325;-92
2022/03/30 15:52:22;;;;;;;20.10;18.00;;;;;;;12.23;59.01;96234.88;8266560;28;20234;-92
2022/03/30 15:56:28;;;;;;;21.40;19.10;;;;;;;12.31;58.22;96241.09;8301991;28;20240;-91
2022/03/30 16:00:32;;;;;;;22.60;20.07;;;;;;;12.45;58.38;96239.19;8302789;28;20234;-91
2022/03/30 16:04:35;;;;;;;19.80;17.20;;;;;;;12.54;57.69;96235.84;8298673;28;20257;-92
2022/03/30 16:09:01;;;;;;;18.63;16.73;;;;;;;12.25;57.93;96238.16;8298849;28;20610;-92
2022/03/30 16:13:06;;;;;;;18.63;16.20;;;;;;;12.49;57.77;96236.22;8257245;28;20233;-91
2022/03/30 16:17:11;;;;;;;18.10;16.27;;;;;;;12.12;57.95;96249.50;8296922;28;20229;-91
2022/03/30 16:21:14;;;;;;;17.83;15.53;;;;;;;12.32;57.67;96247.13;8296439;28;20237;-91
2022/03/30 16:25:21;;;;;;;18.57;15.73;;;;;;;12.16;57.99;96239.69;8278461;28;20248;-90
2022/03/30 16:29:33;;;;;;;16.50;14.80;;;;;;;12.30;57.06;96231.66;8277622;28;20242;-91
2022/03/30 16:33:38;;;;;;;17.07;15.13;;;;;;;11.96;58.21;96243.88;8294552;28;20241;-91
2022/03/30 16:37:42;;;;;;;17.77;15.40;;;;;;;12.24;57.64;96242.53;8293916;28;20438;-89
2022/03/30 16:41:45;;;;;;;16.60;14.60;;;;;;;12.18;57.30;96253.38;8286932;28;20259;-91
2022/03/30 16:45:50;;;;;;;18.13;14.73;;;;;;;12.08;57.52;96248.09;8293601;28;20272;-92
2022/03/30 16:50:14;;;;;;;16.67;14.80;;;;;;;11.90;58.67;96247.75;8262385;28;20229;-90
2022/03/30 16:54:19;;;;;;;15.15;13.65;;;;;;;12.48;56.22;96249.31;8260735;28;20412;-91
2022/03/30 16:58:27;;;;;;;13.60;11.63;;;;;;;12.24;56.79;96260.72;8276212;28;20249;-89
2022/03/30 17:02:32;;;;;;;12.73;10.77;;;;;;;12.17;57.12;96261.31;8294072;28;20238;-90
2022/03/30 17:06:35;;;;;;;12.60;9.87;;;;;;;12.03;57.16;96259.75;8277083;28;20237;-89
2022/03/30 17:10:40;;;;;;;8.80;7.90;;;;;;;11.85;57.33;96260.22;8291382;28;20237;-91
2022/03/30 17:14:45;;;;;;;8.33;7.33;;;;;;;12.04;57.07;96264.84;8265490;28;20252;-90
2022/03/30 17:18:50;;;;;;;7.57;6.87;;;;;;;12.01;56.65;96259.06;8240909;28;20234;-90
2022/03/30 17:22:53;;;;;;;7.80;6.50;;;;;;;11.56;57.57;96254.66;8268699;28;20237;-87
2022/03/30 17:26:56;;;;;;;6.50;5.80;;;;;;;11.76;57.30;96263.50;8285585;28;20237;-90
2022/03/30 17:31:00;;;;;;;6.20;5.50;;;;;;;11.48;57.59;96259.56;8285942;28;20325;-96
2022/03/30 17:35:05;;;;;;;5.90;5.13;;;;;;;11.81;57.04;96260.56;8287070;28;20233;-96
2022/03/30 17:39:13;;;;;;;5.50;5.00;;;;;;;11.82;57.10;96260.47;8338409;22;20302;-71
2022/03/30 17:43:17;;;;;;;5.37;4.83;;;;;;;11.81;56.58;96257.97;8381331;28;20288;-71
2022/03/30 17:47:20;;;;;;;5.20;4.80;;;;;;;11.68;56.72;96269.28;8381528;28;20235;-70
2022/03/30 17:55:44;;;;;;;6.17;5.60;;;;;;;11.53;57.28;96257.47;8381494;28;20238;-70
2022/03/30 17:59:47;;;;;;;5.37;4.87;;;;;;;11.24;57.56;96270.03;8381262;28;20242;-71
2022/03/30 18:03:50;;;;;;;21.37;6.40;;;;;;;14.18;64.05;96275.25;8381134;28;20227;-67
2022/03/30 18:07:54;;;;;;;5.70;5.10;;;;;;;13.88;51.93;96280.34;8380942;28;20427;-71
2022/03/30 18:11:57;;;;;;;4.87;4.47;;;;;;;12.58;54.10;96278.81;8381038;28;20282;-71
2022/03/30 18:16:08;;;;;;;4.93;4.50;;;;;;;11.99;55.37;96276.50;8381116;28;20281;-71
2022/03/30 18:20:14;;;;;;;6.47;4.97;;;;;;;11.87;55.78;96288.63;8380383;28;20253;-71
2022/03/30 18:24:19;;;;;;;6.50;5.90;;;;;;;11.47;56.78;96289.84;8380661;28;20235;-71
2022/03/30 18:28:24;;;;;;;4.50;4.07;;;;;;;11.61;56.42;96285.41;8380513;28;20259;-71
2022/03/30 18:32:27;;;;;;;3.70;3.40;;;;;;;11.71;55.37;96289.78;8380653;28;20231;-71
2022/03/30 18:36:30;;;;;;;3.40;3.20;;;;;;;11.09;57.42;96287.50;8380357;28;20238;-71
2022/03/30 18:40:37;;;;;;;3.67;3.37;;;;;;;11.24;56.83;96295.94;8380381;28;20441;-71
2022/03/30 18:44:40;;;;;;;3.37;3.07;;;;;;;11.33;56.63;96305.63;8380312;28;20538;-71
2022/03/30 18:48:43;;;;;;;3.83;3.47;;;;;;;11.45;55.70;96296.94;8380287;28;20243;-71
2022/03/30 18:52:46;;;;;;;3.23;3.03;;;;;;;11.38;56.16;96298.31;8379023;28;20235;-70
2022/03/30 18:56:52;;;;;;;4.00;3.60;;;;;;;11.23;56.35;96299.44;8378944;28;20472;-71
2022/03/30 19:00:56;;;;;;;3.33;3.13;;;;;;;11.14;56.29;96304.38;8379692;28;20432;-70
2022/03/30 19:04:59;;;;;;;3.57;3.27;;;;;;;11.19;56.40;96310.97;8379123;28;20231;-70
2022/03/30 19:09:02;;;;;;;5.00;3.33;;;;;;;11.21;56.56;96311.69;8378995;28;20239;-70
2022/03/30 19:13:08;;;;;;;2.97;2.77;;;;;;;11.18;56.40;96311.94;8390074;28;20223;-70
2022/03/30 19:17:12;;;;;;;3.27;3.00;;;;;;;11.25;56.19;96313.97;8398119;28;20250;-70
2022/03/30 19:21:15;;;;;;;3.60;3.30;;;;;;;11.06;56.75;96318.81;8395543;28;20231;-71
2022/03/30 19:25:23;;;;;;;3.40;3.10;;;;;;;10.98;57.05;96321.97;8396907;28;20468;-71
2022/03/30 19:29:27;;;;;;;4.17;2.70;;;;;;;10.70;57.00;96331.72;8387099;28;20230;-68